Saint Johnsbury, Vermont
Current Conditions -  °F | °C
As of 6:35 PM on Saturday 20 Dec 2014 (Local Time) from KCDA Reporting Station
Clear Clear  
Wind Chill: -7°   Ceiling: Unl
Heat Index: -7°   Visibility: 10mi
Dew Point: -10°   Wind: 0mph
Humidity: 83%   Direction: NA
Pressure: 30.26"   Gusts: NA
Location:  44.42°N, 72.01°W
Report Text: KCDA 202335Z AUTO 00000KT 10SM CLR M07/M10 A3026 RMK AO2 T10711096
Loading
Personal Weather Stations






























Interactive Weather Map New forecast layout! Learn more

10-Day Weather Forecast

Advertisements
Track Severe Weather on mobile